Time;durP1;ratioP1;P1;durP2;ratioP2;P2;SDS_P1;SDS_P2;PMS_P1;PMS_P2;Temp;Humidity;BMP_temperature;BMP_pressure;BME280_temperature;BME280_humidity;BME280_pressure;Samples;Min_cycle;Max_cycle;Signal;HPM_P1;HPM_P2
2022/10/19 00:01:58;;;;;;;2.83;0.87;;;;;;;;;;5041428;27;86355;-55
2022/10/19 00:04:27;;;;;;;1.60;1.33;;;;;;;;;;5040469;28;88419;-54
2022/10/19 00:06:56;;;;;;;0.70;0.70;;;;;;;;;;5041183;27;88216;-54
2022/10/19 00:09:24;;;;;;;0.83;0.70;;;;;;;;;;5035809;27;88287;-55
2022/10/19 00:11:53;;;;;;;5.50;0.73;;;;;;;;;;5047303;27;89174;-55
2022/10/19 00:14:22;;;;;;;1.33;0.90;;;;;;;;;;5047008;27;88506;-56
2022/10/19 00:16:51;;;;;;;2.37;0.80;;;;;;;;;;5049522;27;88275;-54
2022/10/19 00:19:20;;;;;;;2.20;1.03;;;;;;;;;;5033827;27;88980;-54
2022/10/19 00:21:49;;;;;;;1.00;0.60;;;;;;;;;;5044629;27;87356;-54
2022/10/19 00:24:22;;;;;;;0.53;0.50;;;;;;;;;;5044932;27;87782;-55
2022/10/19 00:26:50;;;;;;;1.70;0.93;;;;;;;;;;5040486;27;87830;-54
2022/10/19 00:29:20;;;;;;;3.63;1.03;;;;;;;;;;5041037;27;86973;-55
2022/10/19 00:31:49;;;;;;;0.53;0.53;;;;;;;;;;5040676;28;87099;-54
2022/10/19 00:34:17;;;;;;;1.10;0.60;;;;;;;;;;5040998;27;88920;-54
2022/10/19 00:36:46;;;;;;;4.77;0.80;;;;;;;;;;5044456;27;88460;-53
2022/10/19 00:39:15;;;;;;;1.30;0.67;;;;;;;;;;5044672;27;87060;-55
2022/10/19 00:41:43;;;;;;;0.70;0.70;;;;;;;;;;5044291;27;87074;-55
2022/10/19 00:44:26;;;;;;;0.67;0.60;;;;;;;;;;5043611;27;87940;-54
2022/10/19 00:46:57;;;;;;;0.80;0.60;;;;;;;;;;5044400;27;87792;-54
2022/10/19 00:49:26;;;;;;;1.00;0.80;;;;;;;;;;5043489;27;88420;-54
2022/10/19 00:51:55;;;;;;;1.70;0.80;;;;;;;;;;5044869;27;86016;-55
2022/10/19 00:54:23;;;;;;;0.50;0.50;;;;;;;;;;5054279;27;90761;-55
2022/10/19 00:56:52;;;;;;;0.93;0.77;;;;;;;;;;5052126;27;87753;-54
2022/10/19 00:59:21;;;;;;;0.60;0.50;;;;;;;;;;5056210;27;87963;-54
2022/10/19 01:01:49;;;;;;;2.23;1.17;;;;;;;;;;5044021;27;86946;-54
2022/10/19 01:04:19;;;;;;;0.73;0.60;;;;;;;;;;5043290;27;87937;-54
2022/10/19 01:06:47;;;;;;;1.20;0.60;;;;;;;;;;5043213;28;88885;-55
2022/10/19 01:09:15;;;;;;;1.60;0.90;;;;;;;;;;5043851;27;87236;-54
2022/10/19 01:11:44;;;;;;;1.27;0.70;;;;;;;;;;5043042;28;87074;-54
2022/10/19 01:14:15;;;;;;;2.53;1.07;;;;;;;;;;5043583;27;87228;-54
2022/10/19 01:16:45;;;;;;;1.07;0.77;;;;;;;;;;5042815;27;87394;-54
2022/10/19 01:19:19;;;;;;;2.10;0.70;;;;;;;;;;5044107;27;86969;-54
2022/10/19 01:21:49;;;;;;;3.30;0.60;;;;;;;;;;5044687;27;87017;-53
2022/10/19 01:24:38;;;;;;;0.80;0.77;;;;;;;;;;5047034;27;88083;-54
2022/10/19 01:27:21;;;;;;;3.50;0.50;;;;;;;;;;5056061;27;88450;-55
2022/10/19 01:29:57;;;;;;;0.63;0.50;;;;;;;;;;5049074;27;89439;-54
2022/10/19 01:32:26;;;;;;;2.37;0.87;;;;;;;;;;5061367;27;87040;-54
2022/10/19 01:34:56;;;;;;;0.50;0.50;;;;;;;;;;5059790;27;87624;-55
2022/10/19 01:37:26;;;;;;;0.93;0.90;;;;;;;;;;5056168;27;87547;-55
2022/10/19 01:39:54;;;;;;;1.90;0.73;;;;;;;;;;5058177;27;87145;-55
2022/10/19 01:42:24;;;;;;;2.10;0.60;;;;;;;;;;5047871;27;86448;-54
2022/10/19 01:44:53;;;;;;;0.73;0.73;;;;;;;;;;5042454;27;88310;-55
2022/10/19 01:47:23;;;;;;;0.50;0.50;;;;;;;;;;5043949;27;87545;-55
2022/10/19 01:49:53;;;;;;;0.50;0.50;;;;;;;;;;5062037;27;88080;-55
2022/10/19 01:52:22;;;;;;;0.73;0.70;;;;;;;;;;5056674;27;87133;-55
2022/10/19 01:54:51;;;;;;;0.80;0.80;;;;;;;;;;5050085;27;87901;-53
2022/10/19 01:57:20;;;;;;;1.30;0.67;;;;;;;;;;5055347;27;87822;-54
2022/10/19 01:59:49;;;;;;;0.70;0.70;;;;;;;;;;5062553;27;86978;-54
2022/10/19 02:02:18;;;;;;;1.20;1.10;;;;;;;;;;5054134;27;87025;-53
2022/10/19 02:04:48;;;;;;;0.40;0.40;;;;;;;;;;5061377;27;88004;-54
2022/10/19 02:07:16;;;;;;;2.40;0.60;;;;;;;;;;5062928;27;87836;-54
2022/10/19 02:09:44;;;;;;;3.67;0.80;;;;;;;;;;5055490;27;86927;-55
2022/10/19 02:12:13;;;;;;;1.77;0.70;;;;;;;;;;5061537;27;87516;-54
2022/10/19 02:14:41;;;;;;;0.87;0.50;;;;;;;;;;5062639;27;87899;-54
2022/10/19 02:17:10;;;;;;;0.70;0.70;;;;;;;;;;5053747;27;88587;-55
2022/10/19 02:19:39;;;;;;;0.40;0.40;;;;;;;;;;5044417;27;86934;-55
2022/10/19 02:22:08;;;;;;;2.10;0.57;;;;;;;;;;5042964;27;86978;-55
2022/10/19 02:24:37;;;;;;;0.43;0.43;;;;;;;;;;5063027;27;88147;-54
2022/10/19 02:27:05;;;;;;;1.23;0.90;;;;;;;;;;5061969;27;87581;-55
2022/10/19 02:29:33;;;;;;;0.50;0.50;;;;;;;;;;5056568;27;87072;-54
2022/10/19 02:32:02;;;;;;;0.77;0.57;;;;;;;;;;5046685;27;86307;-54
2022/10/19 02:34:30;;;;;;;1.70;0.70;;;;;;;;;;5047823;27;87737;-54
2022/10/19 02:36:58;;;;;;;1.83;0.90;;;;;;;;;;5043564;27;88663;-55
2022/10/19 02:39:28;;;;;;;1.07;0.50;;;;;;;;;;5046651;27;87942;-55
2022/10/19 02:41:56;;;;;;;0.33;0.33;;;;;;;;;;5061737;27;87007;-54
2022/10/19 02:44:26;;;;;;;0.70;0.70;;;;;;;;;;5054251;27;89492;-53
2022/10/19 02:46:55;;;;;;;0.53;0.53;;;;;;;;;;5042203;27;87991;-54
2022/10/19 02:49:23;;;;;;;1.53;0.50;;;;;;;;;;5052620;27;87134;-54
2022/10/19 02:51:58;;;;;;;4.73;0.73;;;;;;;;;;5046201;27;87056;-54
2022/10/19 02:54:28;;;;;;;0.53;0.53;;;;;;;;;;5049178;27;88939;-55
2022/10/19 02:56:56;;;;;;;1.13;0.50;;;;;;;;;;5048281;27;86326;-55
2022/10/19 02:59:25;;;;;;;3.07;0.50;;;;;;;;;;5050680;27;86810;-54
2022/10/19 03:01:53;;;;;;;0.60;0.50;;;;;;;;;;5046243;27;87032;-55
2022/10/19 03:04:21;;;;;;;0.40;0.40;;;;;;;;;;5050247;27;88696;-54
2022/10/19 03:06:50;;;;;;;0.40;0.40;;;;;;;;;;5042444;27;88583;-55
2022/10/19 03:09:18;;;;;;;1.03;0.50;;;;;;;;;;5044782;27;87886;-55
2022/10/19 03:11:47;;;;;;;3.20;0.60;;;;;;;;;;5042707;27;89054;-55
2022/10/19 03:14:16;;;;;;;0.60;0.60;;;;;;;;;;5044799;27;89031;-55
2022/10/19 03:16:44;;;;;;;1.70;0.50;;;;;;;;;;5038047;27;87458;-55
2022/10/19 03:19:12;;;;;;;0.83;0.57;;;;;;;;;;5051941;27;88370;-54
2022/10/19 03:21:40;;;;;;;0.50;0.50;;;;;;;;;;5059143;27;86235;-55
2022/10/19 03:24:09;;;;;;;1.80;0.40;;;;;;;;;;5050676;27;86898;-54
2022/10/19 03:26:37;;;;;;;0.63;0.63;;;;;;;;;;5050492;27;87843;-55
2022/10/19 03:29:07;;;;;;;0.87;0.37;;;;;;;;;;5048434;27;87960;-55
2022/10/19 03:31:35;;;;;;;0.30;0.30;;;;;;;;;;5052224;27;87256;-55
2022/10/19 03:34:03;;;;;;;0.40;0.40;;;;;;;;;;5050645;27;88147;-55
2022/10/19 03:36:32;;;;;;;0.60;0.60;;;;;;;;;;5050686;27;87712;-53
2022/10/19 03:39:00;;;;;;;0.50;0.50;;;;;;;;;;5057245;27;87034;-55
2022/10/19 03:41:29;;;;;;;1.37;0.40;;;;;;;;;;5051603;27;87005;-54
2022/10/19 03:43:57;;;;;;;0.40;0.40;;;;;;;;;;5059737;27;88974;-55
2022/10/19 03:46:32;;;;;;;0.93;0.47;;;;;;;;;;5042008;27;87620;-54
2022/10/19 03:49:00;;;;;;;0.90;0.60;;;;;;;;;;5047599;27;87018;-52
2022/10/19 03:51:29;;;;;;;0.70;0.50;;;;;;;;;;5060254;27;86992;-53
2022/10/19 03:53:59;;;;;;;0.47;0.47;;;;;;;;;;5055480;27;89042;-53
2022/10/19 03:56:27;;;;;;;0.40;0.40;;;;;;;;;;5048612;27;88536;-54
2022/10/19 03:58:56;;;;;;;0.57;0.43;;;;;;;;;;5057635;27;87066;-53
2022/10/19 04:01:25;;;;;;;0.77;0.77;;;;;;;;;;5047922;27;87206;-53
2022/10/19 04:03:55;;;;;;;0.60;0.60;;;;;;;;;;5055935;27;87029;-54
2022/10/19 04:06:23;;;;;;;0.50;0.50;;;;;;;;;;5041229;28;87185;-53
2022/10/19 04:08:52;;;;;;;1.13;0.47;;;;;;;;;;5043084;27;87020;-53
2022/10/19 04:11:21;;;;;;;0.63;0.50;;;;;;;;;;5044913;27;86422;-53
2022/10/19 04:13:49;;;;;;;0.40;0.40;;;;;;;;;;5045158;27;90191;-53
2022/10/19 04:16:17;;;;;;;0.60;0.60;;;;;;;;;;5044953;27;87055;-53
2022/10/19 04:18:46;;;;;;;1.43;0.50;;;;;;;;;;5044353;27;88897;-54
2022/10/19 04:21:22;;;;;;;0.63;0.40;;;;;;;;;;5043968;27;87068;-53
2022/10/19 04:23:50;;;;;;;2.20;0.80;;;;;;;;;;5059554;27;87923;-54
2022/10/19 04:26:18;;;;;;;1.03;0.50;;;;;;;;;;5065237;27;88799;-54
2022/10/19 04:28:47;;;;;;;2.83;0.60;;;;;;;;;;5046466;27;87110;-54
2022/10/19 04:31:15;;;;;;;4.80;0.77;;;;;;;;;;5045849;27;87044;-53
2022/10/19 04:33:43;;;;;;;0.40;0.40;;;;;;;;;;5044952;27;87930;-54
2022/10/19 04:36:17;;;;;;;1.47;0.60;;;;;;;;;;5044422;27;88503;-53
2022/10/19 04:38:46;;;;;;;0.60;0.60;;;;;;;;;;5056908;27;87028;-54
2022/10/19 04:41:15;;;;;;;0.73;0.40;;;;;;;;;;5056575;27;87410;-54
2022/10/19 04:43:44;;;;;;;0.47;0.47;;;;;;;;;;5043729;27;88801;-54
2022/10/19 04:46:13;;;;;;;0.30;0.30;;;;;;;;;;5044168;27;88894;-54
2022/10/19 04:48:41;;;;;;;0.60;0.60;;;;;;;;;;5047581;27;87081;-54
2022/10/19 04:51:09;;;;;;;0.60;0.60;;;;;;;;;;5052366;27;88996;-53
2022/10/19 04:53:38;;;;;;;1.63;0.67;;;;;;;;;;5048802;27;88133;-54
2022/10/19 04:56:08;;;;;;;0.57;0.57;;;;;;;;;;5056644;27;87449;-54
2022/10/19 04:58:37;;;;;;;0.53;0.53;;;;;;;;;;5045869;27;87130;-54
2022/10/19 05:01:08;;;;;;;1.33;0.70;;;;;;;;;;5055795;27;86208;-54
2022/10/19 05:03:37;;;;;;;0.30;0.30;;;;;;;;;;5062427;27;87971;-54
2022/10/19 05:06:05;;;;;;;0.73;0.73;;;;;;;;;;5053859;27;87033;-54
2022/10/19 05:08:33;;;;;;;1.27;0.57;;;;;;;;;;5063810;27;88103;-54
2022/10/19 05:11:02;;;;;;;1.40;0.70;;;;;;;;;;5059468;27;86951;-54
2022/10/19 05:13:32;;;;;;;0.40;0.40;;;;;;;;;;5051747;27;88430;-54
2022/10/19 05:16:01;;;;;;;0.33;0.33;;;;;;;;;;5044107;27;87436;-54
2022/10/19 05:18:29;;;;;;;0.60;0.30;;;;;;;;;;5044479;27;87035;-54
2022/10/19 05:21:01;;;;;;;0.53;0.40;;;;;;;;;;5052732;27;87456;-54
2022/10/19 05:23:30;;;;;;;0.90;0.70;;;;;;;;;;5046141;27;89022;-54
2022/10/19 05:26:04;;;;;;;0.30;0.30;;;;;;;;;;5064522;27;86354;-54
2022/10/19 05:28:33;;;;;;;3.60;0.33;;;;;;;;;;5063957;27;86889;-54
2022/10/19 05:31:08;;;;;;;3.87;0.57;;;;;;;;;;5058009;27;87023;-53
2022/10/19 05:33:36;;;;;;;1.13;0.40;;;;;;;;;;5052743;27;89033;-53
2022/10/19 05:36:12;;;;;;;0.50;0.50;;;;;;;;;;5061160;27;89074;-54
2022/10/19 05:38:41;;;;;;;0.70;0.40;;;;;;;;;;5052131;27;87099;-54
2022/10/19 05:41:09;;;;;;;0.70;0.70;;;;;;;;;;5056157;27;87035;-54
2022/10/19 05:43:39;;;;;;;5.07;0.67;;;;;;;;;;5061958;27;88035;-53
2022/10/19 05:46:08;;;;;;;0.40;0.40;;;;;;;;;;5050824;27;87576;-54
2022/10/19 05:48:36;;;;;;;0.63;0.60;;;;;;;;;;5057891;27;86916;-54
2022/10/19 05:51:05;;;;;;;2.20;0.37;;;;;;;;;;5060966;27;86378;-54
2022/10/19 05:53:34;;;;;;;0.60;0.47;;;;;;;;;;5050301;27;88427;-54
2022/10/19 05:56:02;;;;;;;0.30;0.30;;;;;;;;;;5042643;27;87150;-54
2022/10/19 05:58:31;;;;;;;0.77;0.30;;;;;;;;;;5042230;27;88014;-54
2022/10/19 06:01:00;;;;;;;0.37;0.37;;;;;;;;;;5041922;27;86990;-54
2022/10/19 06:03:29;;;;;;;0.40;0.40;;;;;;;;;;5042661;27;88210;-54
2022/10/19 06:05:57;;;;;;;0.70;0.50;;;;;;;;;;5042238;27;87882;-54
2022/10/19 06:08:25;;;;;;;0.63;0.63;;;;;;;;;;5043294;27;87048;-54
2022/10/19 06:10:54;;;;;;;2.00;0.73;;;;;;;;;;5042424;27;87118;-54
2022/10/19 06:13:22;;;;;;;3.30;0.50;;;;;;;;;;5042588;27;88135;-53
2022/10/19 06:15:51;;;;;;;0.50;0.50;;;;;;;;;;5043326;27;86292;-54
2022/10/19 06:18:24;;;;;;;0.80;0.40;;;;;;;;;;5042160;27;87112;-53
2022/10/19 06:20:52;;;;;;;0.63;0.40;;;;;;;;;;5041717;27;88002;-54
2022/10/19 06:23:21;;;;;;;0.67;0.53;;;;;;;;;;5042270;27;89090;-54
2022/10/19 06:25:49;;;;;;;0.60;0.57;;;;;;;;;;5044922;27;90128;-54
2022/10/19 06:28:17;;;;;;;0.37;0.37;;;;;;;;;;5044924;27;86981;-54
2022/10/19 06:30:45;;;;;;;0.70;0.70;;;;;;;;;;5054576;27;87138;-54
2022/10/19 06:33:14;;;;;;;1.70;0.50;;;;;;;;;;5046641;27;87095;-54
2022/10/19 06:35:44;;;;;;;0.50;0.50;;;;;;;;;;5051367;27;88461;-54
2022/10/19 06:38:12;;;;;;;0.53;0.53;;;;;;;;;;5059671;27;87972;-54
2022/10/19 06:40:41;;;;;;;0.77;0.40;;;;;;;;;;5051424;27;86251;-55
2022/10/19 06:43:09;;;;;;;0.30;0.30;;;;;;;;;;5046099;27;87781;-54
2022/10/19 06:45:37;;;;;;;1.33;1.00;;;;;;;;;;5046126;27;88694;-54
2022/10/19 06:48:06;;;;;;;1.33;0.57;;;;;;;;;;5050546;27;88183;-54
2022/10/19 06:50:35;;;;;;;0.77;0.53;;;;;;;;;;5052524;27;87170;-54
2022/10/19 06:53:04;;;;;;;1.27;0.50;;;;;;;;;;5062830;27;88379;-54
2022/10/19 06:55:33;;;;;;;0.40;0.40;;;;;;;;;;5051066;27;87489;-53
2022/10/19 06:58:01;;;;;;;0.40;0.40;;;;;;;;;;5041470;27;88840;-56
2022/10/19 07:00:29;;;;;;;1.33;0.60;;;;;;;;;;5045856;27;86969;-54
2022/10/19 07:02:59;;;;;;;2.93;1.20;;;;;;;;;;5061974;27;86975;-55
2022/10/19 07:05:27;;;;;;;0.40;0.40;;;;;;;;;;5057432;27;87508;-54
2022/10/19 07:07:55;;;;;;;0.47;0.47;;;;;;;;;;5059631;27;87009;-53
2022/10/19 07:10:25;;;;;;;0.43;0.43;;;;;;;;;;5054702;27;87298;-54
2022/10/19 07:12:53;;;;;;;0.93;0.60;;;;;;;;;;5055291;27;89366;-53
2022/10/19 07:15:22;;;;;;;2.53;0.70;;;;;;;;;;5055223;27;88916;-54
2022/10/19 07:17:50;;;;;;;1.13;1.00;;;;;;;;;;5040380;27;87088;-54
2022/10/19 07:20:18;;;;;;;0.30;0.30;;;;;;;;;;5048982;27;87197;-54
2022/10/19 07:22:47;;;;;;;0.90;0.60;;;;;;;;;;5062000;27;88357;-54
2022/10/19 07:25:15;;;;;;;0.40;0.40;;;;;;;;;;5062000;27;86984;-54
2022/10/19 07:27:45;;;;;;;0.60;0.60;;;;;;;;;;5062343;27;87131;-54
2022/10/19 07:30:13;;;;;;;0.20;0.20;;;;;;;;;;5050643;27;86313;-54
2022/10/19 07:32:42;;;;;;;0.73;0.40;;;;;;;;;;5052532;27;89106;-54
2022/10/19 07:35:14;;;;;;;0.33;0.33;;;;;;;;;;5041503;27;87836;-54
2022/10/19 07:37:42;;;;;;;1.17;0.50;;;;;;;;;;5056045;27;87945;-56
2022/10/19 07:40:11;;;;;;;0.50;0.50;;;;;;;;;;5048366;27;88146;-55
2022/10/19 07:42:40;;;;;;;0.80;0.33;;;;;;;;;;5041791;27;87952;-55
2022/10/19 07:45:10;;;;;;;2.20;0.60;;;;;;;;;;5061650;27;87668;-54
2022/10/19 07:47:38;;;;;;;0.40;0.40;;;;;;;;;;5057262;27;87060;-57
2022/10/19 07:50:06;;;;;;;0.30;0.30;;;;;;;;;;5051081;27;88392;-56
2022/10/19 07:52:35;;;;;;;0.63;0.60;;;;;;;;;;5060005;27;88117;-56
2022/10/19 07:55:04;;;;;;;0.20;0.20;;;;;;;;;;5059366;27;86377;-59
2022/10/19 07:57:32;;;;;;;2.07;0.60;;;;;;;;;;5052082;27;87022;-54
2022/10/19 08:00:01;;;;;;;0.20;0.20;;;;;;;;;;5052365;27;86947;-54
2022/10/19 08:02:30;;;;;;;0.50;0.50;;;;;;;;;;5058573;27;88492;-54
2022/10/19 08:05:18;;;;;;;0.90;0.43;;;;;;;;;;5061714;27;90718;-54
2022/10/19 08:07:47;;;;;;;0.30;0.30;;;;;;;;;;5062110;27;87028;-54
2022/10/19 08:10:16;;;;;;;0.47;0.47;;;;;;;;;;5058349;27;86956;-54
2022/10/19 08:12:44;;;;;;;0.50;0.50;;;;;;;;;;5042461;27;87161;-54
2022/10/19 08:15:12;;;;;;;1.00;0.53;;;;;;;;;;5061270;27;87851;-54
2022/10/19 08:17:42;;;;;;;0.83;0.40;;;;;;;;;;5058628;27;87219;-54
2022/10/19 08:20:10;;;;;;;0.20;0.20;;;;;;;;;;5041669;27;86242;-54
2022/10/19 08:22:40;;;;;;;0.30;0.30;;;;;;;;;;5039829;28;88294;-54
2022/10/19 08:25:09;;;;;;;0.50;0.43;;;;;;;;;;5040753;27;88015;-54
2022/10/19 08:27:37;;;;;;;1.17;0.40;;;;;;;;;;5039695;27;88632;-54
2022/10/19 08:30:06;;;;;;;1.50;0.90;;;;;;;;;;5041408;27;86967;-54
2022/10/19 08:32:34;;;;;;;0.50;0.50;;;;;;;;;;5040998;27;87952;-54
2022/10/19 08:35:05;;;;;;;0.30;0.30;;;;;;;;;;5041183;27;87982;-54
2022/10/19 08:37:38;;;;;;;0.43;0.43;;;;;;;;;;5041009;27;87024;-53
2022/10/19 08:40:17;;;;;;;0.70;0.70;;;;;;;;;;5041036;27;87071;-54
2022/10/19 08:42:47;;;;;;;0.70;0.50;;;;;;;;;;5047251;27;88898;-54
2022/10/19 08:45:31;;;;;;;4.67;0.60;;;;;;;;;;5061218;27;87649;-54
2022/10/19 08:48:00;;;;;;;0.43;0.40;;;;;;;;;;5059853;27;87019;-54
2022/10/19 08:50:30;;;;;;;0.40;0.33;;;;;;;;;;5050650;27;87223;-53
2022/10/19 08:53:01;;;;;;;0.20;0.20;;;;;;;;;;5039195;27;88910;-54
2022/10/19 08:55:32;;;;;;;1.03;0.50;;;;;;;;;;5042847;27;88512;-54
2022/10/19 08:58:02;;;;;;;0.30;0.30;;;;;;;;;;5056878;27;87088;-54
2022/10/19 09:00:33;;;;;;;0.23;0.23;;;;;;;;;;5059068;27;87137;-54
2022/10/19 09:03:03;;;;;;;0.50;0.50;;;;;;;;;;5045241;27;88030;-54
2022/10/19 09:05:37;;;;;;;0.30;0.30;;;;;;;;;;5050514;27;87566;-54
2022/10/19 09:08:06;;;;;;;0.63;0.40;;;;;;;;;;5044637;27;86959;-54
2022/10/19 09:10:34;;;;;;;0.30;0.30;;;;;;;;;;5044692;27;86307;-54
2022/10/19 09:13:03;;;;;;;0.40;0.40;;;;;;;;;;5044175;27;89221;-54
2022/10/19 09:15:33;;;;;;;0.27;0.23;;;;;;;;;;5043803;27;87976;-54
2022/10/19 09:18:02;;;;;;;15.30;0.63;;;;;;;;;;5052642;27;87868;-55
2022/10/19 09:20:32;;;;;;;0.43;0.40;;;;;;;;;;5063744;27;86965;-54
2022/10/19 09:23:04;;;;;;;0.90;0.30;;;;;;;;;;5048677;27;87557;-54
2022/10/19 09:25:38;;;;;;;1.90;0.33;;;;;;;;;;5043939;27;87732;-55
2022/10/19 09:28:10;;;;;;;0.20;0.20;;;;;;;;;;5056680;27;86842;-53
2022/10/19 09:30:38;;;;;;;0.67;0.60;;;;;;;;;;5064216;27;87097;-53
2022/10/19 09:33:07;;;;;;;0.37;0.30;;;;;;;;;;5064166;27;86968;-55
2022/10/19 09:35:39;;;;;;;0.87;0.30;;;;;;;;;;5063944;27;88906;-54
2022/10/19 09:38:09;;;;;;;0.40;0.40;;;;;;;;;;5064746;27;89109;-54
2022/10/19 09:40:37;;;;;;;0.90;0.53;;;;;;;;;;5050968;27;86982;-53
2022/10/19 09:43:18;;;;;;;0.57;0.30;;;;;;;;;;5059616;27;89148;-53
2022/10/19 09:45:48;;;;;;;0.67;0.40;;;;;;;;;;5058498;27;88732;-54
2022/10/19 09:48:17;;;;;;;0.30;0.30;;;;;;;;;;5043532;27;87044;-54
2022/10/19 09:50:46;;;;;;;0.53;0.40;;;;;;;;;;5057320;27;86984;-54
2022/10/19 09:53:18;;;;;;;0.40;0.40;;;;;;;;;;5056951;27;88317;-54
2022/10/19 09:55:48;;;;;;;0.37;0.37;;;;;;;;;;5063439;27;87400;-54
2022/10/19 09:58:21;;;;;;;0.50;0.40;;;;;;;;;;5055166;27;87059;-54
2022/10/19 10:00:50;;;;;;;1.60;0.80;;;;;;;;;;5043393;28;86568;-54
2022/10/19 10:03:29;;;;;;;1.67;0.60;;;;;;;;;;5043033;27;89070;-55
2022/10/19 10:05:58;;;;;;;4.90;0.60;;;;;;;;;;5042481;27;87114;-54
2022/10/19 10:08:28;;;;;;;0.50;0.50;;;;;;;;;;5042761;27;88005;-55
2022/10/19 10:10:58;;;;;;;1.53;0.50;;;;;;;;;;5043750;27;87000;-54
2022/10/19 10:13:26;;;;;;;1.47;0.40;;;;;;;;;;5049831;27;88032;-55
2022/10/19 10:15:56;;;;;;;1.17;0.53;;;;;;;;;;5062862;27;87824;-53
2022/10/19 10:18:25;;;;;;;0.43;0.43;;;;;;;;;;5063745;27;86983;-53
2022/10/19 10:20:57;;;;;;;0.90;0.50;;;;;;;;;;5063490;27;87107;-53
2022/10/19 10:23:27;;;;;;;0.50;0.50;;;;;;;;;;5063369;27;88079;-56
2022/10/19 10:25:56;;;;;;;0.73;0.50;;;;;;;;;;5062652;27;87817;-55
2022/10/19 10:28:25;;;;;;;1.57;0.40;;;;;;;;;;5063423;27;86999;-56
2022/10/19 10:30:54;;;;;;;1.50;0.30;;;;;;;;;;5062984;27;86920;-54
2022/10/19 10:33:25;;;;;;;1.50;0.53;;;;;;;;;;5062340;27;89353;-53
2022/10/19 10:36:11;;;;;;;1.80;0.60;;;;;;;;;;5052226;27;89863;-53
2022/10/19 10:38:42;;;;;;;0.20;0.20;;;;;;;;;;5061666;27;86919;-53
2022/10/19 10:41:11;;;;;;;1.17;0.30;;;;;;;;;;5061913;27;87020;-54
2022/10/19 10:43:53;;;;;;;0.50;0.40;;;;;;;;;;5062682;27;87787;-53
2022/10/19 10:46:26;;;;;;;0.53;0.40;;;;;;;;;;5062558;27;87776;-54
2022/10/19 10:48:54;;;;;;;0.50;0.50;;;;;;;;;;5063122;27;86856;-54
2022/10/19 10:51:23;;;;;;;0.93;0.47;;;;;;;;;;5063514;27;86238;-53
2022/10/19 10:53:53;;;;;;;0.63;0.47;;;;;;;;;;5062374;27;88225;-53
2022/10/19 10:56:25;;;;;;;0.40;0.40;;;;;;;;;;5061912;27;87842;-53
2022/10/19 10:58:55;;;;;;;1.40;0.50;;;;;;;;;;5062177;27;87968;-54
2022/10/19 11:01:24;;;;;;;0.60;0.60;;;;;;;;;;5062496;27;86981;-54
2022/10/19 11:03:53;;;;;;;3.83;0.50;;;;;;;;;;5062483;27;87941;-54
2022/10/19 11:06:22;;;;;;;2.33;0.53;;;;;;;;;;5062656;27;87811;-54
2022/10/19 11:08:55;;;;;;;0.60;0.60;;;;;;;;;;5062141;27;86803;-54
2022/10/19 11:11:26;;;;;;;0.83;0.80;;;;;;;;;;5062509;27;86993;-54
2022/10/19 11:13:56;;;;;;;1.80;1.00;;;;;;;;;;5062354;27;88050;-54
2022/10/19 11:16:25;;;;;;;0.50;0.50;;;;;;;;;;5062422;27;86429;-54
2022/10/19 11:18:54;;;;;;;0.60;0.30;;;;;;;;;;5061651;27;87014;-53
2022/10/19 11:21:24;;;;;;;2.40;0.33;;;;;;;;;;5062613;27;86896;-54
2022/10/19 11:23:54;;;;;;;0.50;0.50;;;;;;;;;;5057032;27;89027;-54
2022/10/19 11:26:30;;;;;;;6.43;0.80;;;;;;;;;;5040975;27;88858;-53
2022/10/19 11:29:05;;;;;;;1.20;0.50;;;;;;;;;;5048684;27;87380;-54
2022/10/19 11:31:36;;;;;;;2.30;0.93;;;;;;;;;;5061385;27;86925;-53
2022/10/19 11:34:06;;;;;;;0.30;0.30;;;;;;;;;;5061765;27;88188;-53
2022/10/19 11:36:38;;;;;;;1.10;0.70;;;;;;;;;;5061542;27;87625;-54
2022/10/19 11:39:14;;;;;;;2.10;0.50;;;;;;;;;;5055131;27;87183;-53
2022/10/19 11:41:45;;;;;;;3.40;0.50;;;;;;;;;;5042104;27;86338;-53
2022/10/19 11:44:23;;;;;;;0.50;0.40;;;;;;;;;;5042726;27;87935;-54
2022/10/19 11:46:53;;;;;;;4.23;0.70;;;;;;;;;;5043877;27;87089;-53
2022/10/19 11:49:25;;;;;;;0.40;0.40;;;;;;;;;;5045368;27;87937;-53
2022/10/19 11:51:56;;;;;;;2.10;0.50;;;;;;;;;;5040946;27;86900;-54
2022/10/19 11:54:37;;;;;;;1.13;0.27;;;;;;;;;;5041312;27;89029;-54
2022/10/19 11:57:08;;;;;;;1.30;0.50;;;;;;;;;;5041196;27;88089;-53
2022/10/19 11:59:43;;;;;;;1.83;0.60;;;;;;;;;;5041196;27;86921;-54
2022/10/19 12:02:15;;;;;;;2.77;0.60;;;;;;;;;;5040710;28;86946;-54
2022/10/19 12:04:44;;;;;;;0.33;0.30;;;;;;;;;;5041078;27;88301;-54
2022/10/19 12:07:17;;;;;;;0.47;0.40;;;;;;;;;;5041555;27;88717;-54
2022/10/19 12:09:48;;;;;;;0.97;0.60;;;;;;;;;;5041390;27;86956;-53
2022/10/19 12:12:23;;;;;;;0.27;0.27;;;;;;;;;;5041440;27;86753;-53
2022/10/19 12:14:52;;;;;;;0.93;0.60;;;;;;;;;;5040722;27;89753;-54
2022/10/19 12:17:21;;;;;;;0.63;0.60;;;;;;;;;;5041195;28;88326;-53
2022/10/19 12:19:50;;;;;;;0.33;0.33;;;;;;;;;;5041703;27;87137;-55
2022/10/19 12:22:19;;;;;;;0.70;0.43;;;;;;;;;;5041354;27;86956;-53
2022/10/19 12:24:49;;;;;;;0.40;0.40;;;;;;;;;;5040943;27;88138;-53
2022/10/19 12:27:18;;;;;;;0.80;0.80;;;;;;;;;;5040744;27;88343;-53
2022/10/19 12:29:48;;;;;;;2.60;0.70;;;;;;;;;;5043025;27;86919;-55
2022/10/19 12:32:17;;;;;;;0.67;0.47;;;;;;;;;;5045220;27;86596;-55
2022/10/19 12:34:47;;;;;;;0.40;0.40;;;;;;;;;;5044519;27;89215;-55
2022/10/19 12:37:16;;;;;;;2.10;0.77;;;;;;;;;;5044728;27;87933;-55
2022/10/19 12:39:46;;;;;;;1.53;0.50;;;;;;;;;;5044549;27;87704;-55
2022/10/19 12:42:17;;;;;;;0.77;0.77;;;;;;;;;;5044528;28;86884;-54
2022/10/19 12:44:57;;;;;;;1.30;0.60;;;;;;;;;;5044746;27;88318;-55
2022/10/19 12:47:29;;;;;;;0.67;0.40;;;;;;;;;;5044479;27;87053;-55
2022/10/19 12:49:58;;;;;;;0.40;0.40;;;;;;;;;;5044280;28;86802;-54
2022/10/19 12:52:39;;;;;;;0.77;0.70;;;;;;;;;;5043969;27;86910;-54
2022/10/19 12:55:24;;;;;;;0.37;0.37;;;;;;;;;;5044024;27;88356;-53
2022/10/19 12:57:59;;;;;;;0.43;0.43;;;;;;;;;;5044167;27;89289;-55
2022/10/19 13:00:29;;;;;;;0.37;0.37;;;;;;;;;;5044487;27;86960;-55
2022/10/19 13:02:58;;;;;;;1.17;0.83;;;;;;;;;;5044714;27;86702;-55
2022/10/19 13:05:28;;;;;;;0.33;0.33;;;;;;;;;;5043689;27;89180;-55
2022/10/19 13:07:56;;;;;;;0.50;0.30;;;;;;;;;;5044721;27;88515;-54
2022/10/19 13:10:25;;;;;;;0.30;0.30;;;;;;;;;;5044147;27;87032;-55
2022/10/19 13:12:53;;;;;;;0.77;0.40;;;;;;;;;;5044399;27;87119;-54
2022/10/19 13:15:55;;;;;;;2.37;0.40;;;;;;;;;;5044304;27;88198;-55
2022/10/19 13:18:42;;;;;;;1.70;0.60;;;;;;;;;;5044162;28;86866;-55
2022/10/19 13:21:12;;;;;;;0.50;0.50;;;;;;;;;;5043825;27;86968;-55
2022/10/19 13:23:41;;;;;;;1.50;0.40;;;;;;;;;;5044271;27;86347;-55
2022/10/19 13:26:31;;;;;;;0.37;0.37;;;;;;;;;;5043585;27;86937;-55
2022/10/19 13:29:00;;;;;;;0.63;0.63;;;;;;;;;;5043511;27;87778;-55
2022/10/19 13:31:28;;;;;;;3.97;0.80;;;;;;;;;;5043259;27;87965;-55
2022/10/19 13:33:57;;;;;;;0.40;0.40;;;;;;;;;;5043582;27;87018;-55
2022/10/19 13:36:27;;;;;;;0.30;0.23;;;;;;;;;;5043393;27;88113;-55
2022/10/19 13:39:07;;;;;;;0.20;0.20;;;;;;;;;;5043752;27;86954;-55
2022/10/19 13:41:45;;;;;;;0.60;0.40;;;;;;;;;;5043266;27;87065;-55
2022/10/19 13:44:35;;;;;;;0.53;0.43;;;;;;;;;;5043532;27;87025;-56
2022/10/19 13:47:13;;;;;;;1.27;0.80;;;;;;;;;;5039053;27;88829;-55
2022/10/19 13:49:51;;;;;;;0.60;0.60;;;;;;;;;;5044233;27;88332;-55
2022/10/19 13:52:29;;;;;;;1.50;0.70;;;;;;;;;;5044202;27;86841;-55
2022/10/19 13:55:09;;;;;;;0.30;0.30;;;;;;;;;;5043445;27;87703;-56
2022/10/19 13:57:42;;;;;;;0.60;0.60;;;;;;;;;;5042610;27;90156;-55
2022/10/19 14:00:14;;;;;;;1.43;0.70;;;;;;;;;;5042908;27;88516;-55
2022/10/19 14:02:55;;;;;;;0.30;0.30;;;;;;;;;;5042880;27;86835;-55
2022/10/19 14:05:45;;;;;;;0.30;0.30;;;;;;;;;;5043262;27;86913;-55
2022/10/19 14:08:18;;;;;;;0.50;0.50;;;;;;;;;;5042996;27;88919;-55
2022/10/19 14:10:46;;;;;;;1.90;0.60;;;;;;;;;;5043335;27;87613;-55
2022/10/19 14:13:28;;;;;;;0.70;0.60;;;;;;;;;;5043199;27;86787;-54
2022/10/19 14:15:57;;;;;;;0.30;0.30;;;;;;;;;;5043397;27;86283;-55
2022/10/19 14:18:26;;;;;;;0.30;0.30;;;;;;;;;;5043073;27;89051;-55
2022/10/19 14:20:57;;;;;;;1.63;0.30;;;;;;;;;;5042802;27;87647;-55
2022/10/19 14:23:28;;;;;;;0.30;0.30;;;;;;;;;;5042394;28;87962;-55
2022/10/19 14:25:56;;;;;;;0.47;0.47;;;;;;;;;;5042653;27;87096;-55
2022/10/19 14:28:25;;;;;;;0.97;0.53;;;;;;;;;;5042167;28;89219;-55
2022/10/19 14:30:57;;;;;;;0.40;0.40;;;;;;;;;;5042543;27;87795;-55
2022/10/19 14:33:26;;;;;;;1.03;0.57;;;;;;;;;;5043140;27;86983;-55
2022/10/19 14:35:54;;;;;;;0.40;0.40;;;;;;;;;;5042130;27;87093;-55
2022/10/19 14:38:24;;;;;;;1.23;1.10;;;;;;;;;;5042624;27;89012;-54
2022/10/19 14:40:54;;;;;;;0.50;0.50;;;;;;;;;;5042653;27;86472;-54
2022/10/19 14:43:23;;;;;;;0.67;0.30;;;;;;;;;;5042363;27;87009;-54
2022/10/19 14:46:19;;;;;;;0.30;0.30;;;;;;;;;;5042685;27;86859;-54
2022/10/19 14:48:47;;;;;;;0.97;0.50;;;;;;;;;;5006581;27;90122;-54
2022/10/19 14:51:20;;;;;;;2.40;1.00;;;;;;;;;;5042085;27;88594;-54
2022/10/19 14:53:49;;;;;;;0.70;0.70;;;;;;;;;;5042186;27;86995;-54
2022/10/19 14:56:19;;;;;;;1.60;0.77;;;;;;;;;;5041719;27;87078;-54
2022/10/19 14:58:48;;;;;;;4.07;1.07;;;;;;;;;;5042188;27;87950;-55
2022/10/19 15:01:16;;;;;;;0.83;0.70;;;;;;;;;;5041902;28;87580;-54
2022/10/19 15:03:45;;;;;;;0.50;0.50;;;;;;;;;;5042276;27;86835;-54